Time;durP1;ratioP1;P1;durP2;ratioP2;P2;SDS_P1;SDS_P2;PMS_P1;PMS_P2;Temp;Humidity;BMP_temperature;BMP_pressure;BME280_temperature;BME280_humidity;BME280_pressure;Samples;Min_cycle;Max_cycle;Signal;HPM_P1;HPM_P2
2023/01/12 00:03:22;;;;;;;12.05;2.10;;;7.20;99.90;;;;;;12584280;28;20086;-85
2023/01/12 00:09:24;;;;;;;8.15;1.70;;;7.30;99.90;;;;;;12573344;28;20139;-86
2023/01/12 00:22:10;;;;;;;12.02;1.70;;;7.40;99.90;;;;;;12576755;28;20040;-85
2023/01/12 00:28:12;;;;;;;12.82;2.15;;;7.50;99.90;;;;;;12559495;28;20089;-86
2023/01/12 00:34:15;;;;;;;13.13;2.10;;;7.50;99.90;;;;;;12573584;28;20052;-86
2023/01/12 00:40:17;;;;;;;11.27;2.28;;;7.50;99.90;;;;;;12568361;28;20060;-86
2023/01/12 00:46:27;;;;;;;9.13;1.83;;;7.60;99.90;;;;;;12587529;28;20097;-86
2023/01/12 00:52:30;;;;;;;6.07;1.52;;;7.70;99.90;;;;;;12570779;28;20101;-86
2023/01/12 00:58:33;;;;;;;10.38;1.38;;;7.60;99.90;;;;;;12584382;28;20055;-86
2023/01/12 01:04:34;;;;;;;5.20;1.30;;;7.70;99.90;;;;;;12579559;28;20041;-86
2023/01/12 01:10:36;;;;;;;4.60;1.20;;;7.70;99.90;;;;;;12576975;28;20567;-86
2023/01/12 01:16:38;;;;;;;6.00;1.38;;;7.70;99.90;;;;;;12566598;28;20052;-86
2023/01/12 01:22:40;;;;;;;7.50;1.23;;;7.60;99.90;;;;;;12580901;28;20040;-86
2023/01/12 01:28:42;;;;;;;6.72;1.55;;;7.60;99.90;;;;;;12569724;28;20500;-86
2023/01/12 01:34:45;;;;;;;9.32;1.70;;;7.50;99.90;;;;;;12565592;28;20059;-86
2023/01/12 01:40:47;;;;;;;14.20;2.95;;;7.50;99.90;;;;;;12574082;28;20059;-86
2023/01/12 01:46:53;;;;;;;14.15;2.53;;;7.40;99.90;;;;;;12576173;28;20055;-86
2023/01/12 01:53:01;;;;;;;11.48;2.50;;;7.30;99.90;;;;;;12550344;28;20488;-86
2023/01/12 01:59:08;;;;;;;14.60;2.63;;;7.30;99.90;;;;;;12578303;28;20048;-85
2023/01/12 02:05:12;;;;;;;9.23;2.60;;;7.30;99.90;;;;;;12583295;28;20040;-86
2023/01/12 02:17:46;;;;;;;14.25;2.20;;;7.40;99.90;;;;;;12585572;28;20045;-87
2023/01/12 02:24:01;;;;;;;13.02;2.15;;;7.40;99.90;;;;;;12589012;28;20037;-87
2023/01/12 02:30:38;;;;;;;9.63;2.83;;;7.40;99.90;;;;;;12592991;28;20049;-86
2023/01/12 02:36:52;;;;;;;8.45;1.83;;;7.30;99.90;;;;;;12562715;28;20503;-86
2023/01/12 02:43:06;;;;;;;11.43;2.20;;;7.30;99.90;;;;;;12572595;28;20396;-86
2023/01/12 02:49:13;;;;;;;9.47;2.10;;;7.30;99.90;;;;;;12593052;28;20052;-86
2023/01/12 02:55:17;;;;;;;10.35;2.10;;;7.40;99.90;;;;;;12582735;28;20283;-86
2023/01/12 03:01:20;;;;;;;5.93;2.07;;;7.40;99.90;;;;;;12583424;28;20051;-87
2023/01/12 03:07:25;;;;;;;7.07;2.30;;;7.40;99.90;;;;;;12568860;28;20097;-86
2023/01/12 03:13:30;;;;;;;10.45;2.30;;;7.40;99.90;;;;;;12570570;28;20041;-86
2023/01/12 03:19:32;;;;;;;10.18;2.67;;;7.40;99.90;;;;;;12596130;28;20049;-87
2023/01/12 03:25:37;;;;;;;10.35;3.13;;;7.50;99.90;;;;;;12585815;28;20082;-86
2023/01/12 03:31:40;;;;;;;14.90;3.30;;;7.50;99.90;;;;;;12584721;28;20048;-87
2023/01/12 03:37:55;;;;;;;12.85;3.20;;;7.50;99.90;;;;;;12591216;28;20056;-87
2023/01/12 03:44:02;;;;;;;13.73;3.60;;;7.50;99.90;;;;;;12576589;28;20069;-87
2023/01/12 03:50:15;;;;;;;10.75;2.72;;;7.50;99.90;;;;;;12572565;28;20058;-87
2023/01/12 03:56:19;;;;;;;12.60;2.95;;;7.60;99.90;;;;;;12565037;28;20101;-87
2023/01/12 04:02:21;;;;;;;11.98;3.38;;;7.60;99.90;;;;;;12561763;28;20093;-88
2023/01/12 04:08:23;;;;;;;15.18;2.90;;;7.60;99.90;;;;;;12568153;28;20041;-87
2023/01/12 04:14:25;;;;;;;8.32;1.83;;;7.60;99.90;;;;;;12564168;28;20044;-87
2023/01/12 04:20:27;;;;;;;7.78;2.08;;;7.70;99.90;;;;;;12588511;28;20623;-87
2023/01/12 04:26:28;;;;;;;10.00;2.53;;;7.70;99.90;;;;;;12572854;28;20062;-88
2023/01/12 04:32:30;;;;;;;8.20;2.60;;;7.60;99.90;;;;;;12579312;28;20400;-86
2023/01/12 04:38:32;;;;;;;9.70;2.17;;;7.70;99.90;;;;;;12569122;28;20700;-87
2023/01/12 04:44:34;;;;;;;11.65;2.65;;;7.70;99.90;;;;;;12580316;28;20044;-87
2023/01/12 04:50:37;;;;;;;10.07;2.50;;;7.70;99.90;;;;;;12583100;28;20554;-86
2023/01/12 04:56:38;;;;;;;11.10;2.50;;;7.70;99.90;;;;;;12563936;28;20500;-87
2023/01/12 05:02:40;;;;;;;11.73;2.30;;;7.70;99.90;;;;;;12581788;28;20120;-86
2023/01/12 05:15:02;;;;;;;6.80;2.00;;;7.70;99.90;;;;;;12591171;28;20114;-87
2023/01/12 05:21:04;;;;;;;8.00;2.65;;;7.70;99.90;;;;;;12582605;28;20054;-86
2023/01/12 05:27:06;;;;;;;5.95;1.73;;;7.70;99.90;;;;;;12583062;28;20899;-86
2023/01/12 05:33:14;;;;;;;5.80;1.77;;;7.70;99.90;;;;;;12579135;28;20049;-86
2023/01/12 05:39:16;;;;;;;8.10;1.70;;;7.70;99.90;;;;;;12571306;28;20056;-86
2023/01/12 05:45:18;;;;;;;8.15;1.50;;;7.70;99.90;;;;;;12590796;28;20510;-86
2023/01/12 05:51:20;;;;;;;6.82;1.40;;;7.60;99.90;;;;;;12585541;28;20045;-86
2023/01/12 05:57:22;;;;;;;5.15;1.13;;;7.60;99.90;;;;;;12589265;28;20056;-85
2023/01/12 06:03:24;;;;;;;4.43;1.30;;;7.70;99.90;;;;;;12593171;28;20136;-86
2023/01/12 06:09:28;;;;;;;5.10;1.13;;;7.70;99.90;;;;;;12596818;28;20051;-87
2023/01/12 06:15:31;;;;;;;3.22;0.77;;;7.60;99.90;;;;;;12598825;28;20048;-85
2023/01/12 06:21:33;;;;;;;3.33;0.98;;;7.70;99.90;;;;;;12558786;28;20048;-86
2023/01/12 06:27:37;;;;;;;9.40;1.63;;;7.80;99.90;;;;;;12587403;28;20109;-86
2023/01/12 06:33:40;;;;;;;2.20;0.80;;;7.70;99.90;;;;;;12581214;28;20049;-87
2023/01/12 06:39:42;;;;;;;4.18;0.90;;;7.70;99.90;;;;;;12580266;28;20173;-86
2023/01/12 06:45:43;;;;;;;3.38;0.80;;;7.70;99.90;;;;;;12580432;28;20044;-87
2023/01/12 06:51:50;;;;;;;4.10;0.63;;;7.60;99.90;;;;;;12588058;28;20041;-86
2023/01/12 06:57:52;;;;;;;3.08;0.50;;;7.60;99.90;;;;;;12572824;28;20063;-87
2023/01/12 07:03:54;;;;;;;1.30;0.50;;;7.50;99.90;;;;;;12588000;28;20052;-87
2023/01/12 07:09:56;;;;;;;3.22;0.60;;;7.50;99.90;;;;;;12568395;28;20052;-86
2023/01/12 07:16:01;;;;;;;3.63;0.40;;;7.40;99.90;;;;;;12591469;28;20109;-87
2023/01/12 07:22:03;;;;;;;2.63;0.40;;;7.40;99.90;;;;;;12579199;28;20496;-86
2023/01/12 07:28:04;;;;;;;0.95;0.28;;;7.40;99.90;;;;;;12589211;28;20044;-88
2023/01/12 07:34:06;;;;;;;1.50;0.50;;;7.40;99.90;;;;;;12583782;28;20060;-87
2023/01/12 07:40:09;;;;;;;2.85;0.43;;;7.40;99.90;;;;;;12584804;28;20068;-87
2023/01/12 07:46:11;;;;;;;4.80;0.50;;;7.30;99.90;;;;;;12587760;28;20041;-87
2023/01/12 07:52:13;;;;;;;1.05;0.40;;;7.30;99.90;;;;;;12569581;28;20048;-87
2023/01/12 07:58:15;;;;;;;4.13;0.65;;;7.30;99.90;;;;;;12590281;28;20056;-88
2023/01/12 08:04:17;;;;;;;2.90;0.47;;;7.30;99.90;;;;;;12587897;28;20043;-87
2023/01/12 08:10:19;;;;;;;1.42;0.30;;;7.20;99.90;;;;;;12584393;28;20057;-87
2023/01/12 08:16:26;;;;;;;2.92;0.50;;;7.30;99.90;;;;;;12584464;28;20083;-87
2023/01/12 08:22:35;;;;;;;2.03;0.40;;;7.30;99.90;;;;;;12583941;28;20041;-88
2023/01/12 08:28:42;;;;;;;1.75;0.40;;;7.20;99.90;;;;;;12559925;28;20089;-87
2023/01/12 08:34:51;;;;;;;1.30;0.45;;;7.30;99.90;;;;;;12585083;28;20052;-87
2023/01/12 08:47:18;;;;;;;0.35;0.20;;;7.40;99.90;;;;;;12589233;28;20049;-87
2023/01/12 08:53:21;;;;;;;1.73;0.40;;;7.30;99.90;;;;;;12586519;28;20059;-87
2023/01/12 08:59:24;;;;;;;0.88;0.30;;;7.40;99.90;;;;;;12583254;28;20049;-87
2023/01/12 09:05:26;;;;;;;1.17;0.32;;;7.40;99.90;;;;;;12566764;28;20044;-87
2023/01/12 09:11:29;;;;;;;1.20;0.40;;;7.50;99.90;;;;;;12584537;28;20044;-87
2023/01/12 09:17:30;;;;;;;1.52;0.45;;;7.60;99.90;;;;;;12560766;28;20056;-87
2023/01/12 09:23:33;;;;;;;1.48;0.50;;;7.70;99.90;;;;;;12576050;28;20542;-87
2023/01/12 09:29:35;;;;;;;2.03;0.60;;;7.70;99.90;;;;;;12565709;28;20193;-87
2023/01/12 09:35:36;;;;;;;1.88;0.90;;;7.70;99.90;;;;;;12566806;28;20523;-86
2023/01/12 09:48:12;;;;;;;3.35;1.20;;;7.90;99.90;;;;;;12581264;28;20489;-86
2023/01/12 09:54:14;;;;;;;3.40;1.08;;;8.00;99.90;;;;;;12565362;28;20097;-87
2023/01/12 10:00:17;;;;;;;2.03;1.20;;;8.10;99.90;;;;;;12566730;28;21017;-87
2023/01/12 10:06:20;;;;;;;5.00;1.30;;;8.20;99.90;;;;;;12585766;28;20971;-87
2023/01/12 10:12:34;;;;;;;2.00;1.08;;;8.30;99.90;;;;;;12581279;28;20835;-87
2023/01/12 10:18:43;;;;;;;2.35;1.20;;;8.30;99.90;;;;;;12576840;28;20060;-87
2023/01/12 10:24:48;;;;;;;3.67;1.35;;;8.40;99.90;;;;;;12587310;28;20131;-87
2023/01/12 10:30:52;;;;;;;3.50;1.40;;;8.50;99.90;;;;;;12560355;28;20047;-87
2023/01/12 10:37:04;;;;;;;5.75;1.70;;;8.60;99.90;;;;;;12591730;28;20465;-88
2023/01/12 10:43:17;;;;;;;3.53;1.40;;;8.60;99.90;;;;;;12569883;28;20511;-87
2023/01/12 10:49:23;;;;;;;4.03;1.90;;;8.70;99.90;;;;;;12586624;28;20057;-87
2023/01/12 10:55:30;;;;;;;5.40;2.17;;;8.80;99.90;;;;;;12588866;28;20135;-87
2023/01/12 11:01:45;;;;;;;4.05;1.80;;;8.90;99.90;;;;;;12590071;28;20135;-86
2023/01/12 11:07:48;;;;;;;3.90;2.13;;;9.00;99.90;;;;;;12573448;28;20045;-88
2023/01/12 11:14:01;;;;;;;2.95;1.90;;;9.00;99.90;;;;;;12588920;28;20094;-86
2023/01/12 11:20:33;;;;;;;3.53;1.80;;;9.10;99.90;;;;;;12564227;28;20508;-87
2023/01/12 11:26:57;;;;;;;2.92;1.58;;;9.10;99.90;;;;;;12564522;28;20411;-87
2023/01/12 11:33:07;;;;;;;2.83;1.30;;;9.10;99.90;;;;;;12570818;28;20053;-88
2023/01/12 11:39:14;;;;;;;2.83;1.70;;;9.10;99.90;;;;;;12584235;28;20044;-88
2023/01/12 11:45:27;;;;;;;5.18;2.10;;;9.10;99.90;;;;;;12587877;28;20404;-88
2023/01/12 11:51:29;;;;;;;7.50;2.50;;;9.10;99.90;;;;;;12573874;28;20170;-87
2023/01/12 11:57:40;;;;;;;5.32;2.47;;;9.10;99.90;;;;;;12568915;28;20053;-88
2023/01/12 12:03:56;;;;;;;3.53;2.53;;;9.20;99.90;;;;;;12588607;28;20522;-87
2023/01/12 12:10:24;;;;;;;7.32;2.70;;;9.30;99.90;;;;;;12561930;28;20178;-87
2023/01/12 12:16:52;;;;;;;4.70;2.25;;;9.30;99.90;;;;;;12589213;28;20056;-88
2023/01/12 12:23:38;;;;;;;3.28;2.50;;;9.30;99.90;;;;;;12586845;28;20098;-87
2023/01/12 12:30:03;;;;;;;3.88;2.95;;;9.30;99.90;;;;;;12511488;28;20040;-87
2023/01/12 12:36:27;;;;;;;4.20;2.55;;;9.40;99.90;;;;;;12586344;28;20044;-87
2023/01/12 12:49:14;;;;;;;5.73;3.27;;;9.40;99.90;;;;;;12583582;28;20131;-87
2023/01/12 12:55:17;;;;;;;4.40;3.10;;;9.40;99.90;;;;;;12585058;28;20308;-87
2023/01/12 13:01:18;;;;;;;3.80;2.53;;;9.40;99.90;;;;;;12570475;28;20048;-88
2023/01/12 13:07:21;;;;;;;4.00;2.53;;;9.40;99.90;;;;;;12567105;28;20045;-88
2023/01/12 13:13:30;;;;;;;4.13;2.88;;;9.50;99.90;;;;;;12566478;28;20112;-87
2023/01/12 13:19:33;;;;;;;3.88;2.80;;;9.50;99.90;;;;;;12584972;28;20146;-87
2023/01/12 13:25:35;;;;;;;4.50;2.90;;;9.50;99.90;;;;;;12570598;28;20040;-88
2023/01/12 13:31:38;;;;;;;3.97;2.50;;;9.50;99.90;;;;;;12586481;28;20041;-87
2023/01/12 13:37:48;;;;;;;2.75;2.33;;;9.50;99.90;;;;;;12559393;28;20061;-87
2023/01/12 13:43:55;;;;;;;2.65;2.25;;;9.50;99.90;;;;;;12574154;28;20037;-87
2023/01/12 13:50:00;;;;;;;4.88;2.50;;;9.60;99.90;;;;;;12565611;28;20071;-87
2023/01/12 13:56:05;;;;;;;3.15;2.42;;;9.60;99.90;;;;;;12570527;28;20108;-87
2023/01/12 14:02:16;;;;;;;2.97;2.30;;;9.60;99.90;;;;;;12602552;28;20448;-87
2023/01/12 14:08:37;;;;;;;2.13;1.73;;;9.60;99.90;;;;;;12582724;28;20052;-87
2023/01/12 14:21:32;;;;;;;2.08;1.45;;;9.50;99.90;;;;;;12599920;28;20048;-87
2023/01/12 14:27:33;;;;;;;2.15;1.45;;;9.50;99.90;;;;;;12574424;28;20101;-87
2023/01/12 14:33:37;;;;;;;3.67;1.35;;;9.50;99.90;;;;;;12590217;28;20053;-87
2023/01/12 14:39:40;;;;;;;2.20;1.40;;;9.50;99.90;;;;;;12582838;28;20057;-87
2023/01/12 14:52:28;;;;;;;2.25;1.55;;;9.50;99.90;;;;;;12591459;28;20045;-87
2023/01/12 14:58:30;;;;;;;3.78;1.50;;;9.50;99.90;;;;;;12573270;28;20052;-87
2023/01/12 15:04:32;;;;;;;2.78;1.85;;;9.50;99.90;;;;;;12572314;28;20086;-88
2023/01/12 15:10:38;;;;;;;4.15;2.00;;;9.50;99.90;;;;;;12589130;28;20040;-88
2023/01/12 15:30:04;;;;;;;3.47;1.80;;;9.50;99.90;;;;;;12587502;28;20105;-87
2023/01/12 15:36:07;;;;;;;3.45;2.13;;;9.50;99.90;;;;;;12589663;28;20052;-87
2023/01/12 15:42:20;;;;;;;4.13;2.42;;;9.50;99.90;;;;;;12570876;28;20053;-88
2023/01/12 15:48:23;;;;;;;3.67;2.13;;;9.50;99.90;;;;;;12577819;28;20044;-88
2023/01/12 15:54:25;;;;;;;2.92;1.75;;;9.40;99.90;;;;;;12591423;28;20045;-87
2023/01/12 16:00:27;;;;;;;3.15;1.60;;;9.40;99.90;;;;;;12573337;28;20071;-87
2023/01/12 16:06:38;;;;;;;2.10;1.40;;;9.50;99.90;;;;;;12569766;28;20400;-87
2023/01/12 16:12:40;;;;;;;2.15;1.10;;;9.50;99.90;;;;;;12558799;28;20397;-87
2023/01/12 16:18:42;;;;;;;2.63;1.27;;;9.50;99.90;;;;;;12595872;28;20055;-87
2023/01/12 16:24:44;;;;;;;1.83;1.20;;;9.50;99.90;;;;;;12574249;28;20166;-87
2023/01/12 16:30:46;;;;;;;4.70;1.35;;;9.50;99.90;;;;;;12584234;28;20562;-87
2023/01/12 16:36:49;;;;;;;2.83;1.30;;;9.50;99.90;;;;;;12570556;28;20052;-88
2023/01/12 16:42:51;;;;;;;2.35;1.50;;;9.50;99.90;;;;;;12570029;28;20522;-87
2023/01/12 16:48:55;;;;;;;3.25;1.80;;;9.60;99.90;;;;;;12571374;28;20098;-87
2023/01/12 16:54:57;;;;;;;4.00;2.10;;;9.50;99.90;;;;;;12567193;28;20044;-87
2023/01/12 17:00:59;;;;;;;3.50;2.03;;;9.40;99.90;;;;;;12568463;28;20469;-86
2023/01/12 17:07:01;;;;;;;4.15;2.40;;;9.50;99.90;;;;;;12565873;28;20481;-87
2023/01/12 17:13:03;;;;;;;3.80;2.35;;;9.40;99.90;;;;;;12586265;28;20044;-87
2023/01/12 17:19:05;;;;;;;3.75;2.58;;;9.40;99.90;;;;;;12588281;28;20056;-87
2023/01/12 17:25:08;;;;;;;4.05;2.35;;;9.50;99.90;;;;;;12580962;28;20126;-87
2023/01/12 17:31:13;;;;;;;3.47;2.47;;;9.40;99.90;;;;;;12585686;28;20051;-87
2023/01/12 17:37:15;;;;;;;3.58;2.35;;;9.40;99.90;;;;;;12585665;28;21548;-87
2023/01/12 17:43:17;;;;;;;5.50;2.60;;;9.40;99.90;;;;;;12595424;28;20052;-87
2023/01/12 17:49:19;;;;;;;3.03;2.28;;;9.30;99.90;;;;;;12599782;28;20078;-86
2023/01/12 17:55:20;;;;;;;2.88;2.30;;;9.40;99.90;;;;;;12581979;28;20139;-87
2023/01/12 18:01:25;;;;;;;3.15;1.90;;;9.40;99.90;;;;;;12579157;28;20761;-87
2023/01/12 18:07:28;;;;;;;2.22;1.60;;;9.40;99.90;;;;;;12626106;28;20104;-88
2023/01/12 18:13:30;;;;;;;2.58;1.63;;;9.40;99.90;;;;;;12632585;28;20029;-88
2023/01/12 18:19:32;;;;;;;5.15;2.10;;;9.40;99.90;;;;;;12631432;28;20106;-87
2023/01/12 18:25:35;;;;;;;2.25;1.58;;;9.40;99.90;;;;;;12625709;28;20045;-88
2023/01/12 18:31:37;;;;;;;4.28;1.95;;;9.40;99.90;;;;;;12649531;28;20067;-88
2023/01/12 18:37:41;;;;;;;3.15;1.70;;;9.40;99.90;;;;;;12641865;28;20062;-88
2023/01/12 18:43:43;;;;;;;2.60;1.60;;;9.40;99.90;;;;;;12628869;28;20113;-88
2023/01/12 18:49:48;;;;;;;3.20;1.55;;;9.40;99.90;;;;;;12610307;28;20385;-88
2023/01/12 18:55:55;;;;;;;2.58;1.60;;;9.40;99.90;;;;;;12587241;28;20040;-87
2023/01/12 19:01:57;;;;;;;3.08;1.85;;;9.40;99.90;;;;;;12604825;28;20068;-87
2023/01/12 19:20:27;;;;;;;1.85;1.30;;;9.40;99.90;;;;;;12600978;28;20109;-87
2023/01/12 19:32:50;;;;;;;2.28;1.60;;;9.40;99.90;;;;;;12587318;28;20052;-87
2023/01/12 19:38:52;;;;;;;2.92;1.60;;;9.40;99.90;;;;;;12596932;28;20068;-87
2023/01/12 19:44:54;;;;;;;2.35;1.38;;;9.40;99.90;;;;;;12594920;28;20488;-87
2023/01/12 19:51:04;;;;;;;2.67;1.42;;;9.30;99.90;;;;;;12590680;28;20049;-87
2023/01/12 19:57:06;;;;;;;3.88;1.50;;;9.30;99.90;;;;;;12592050;28;20056;-87
2023/01/12 20:03:09;;;;;;;5.07;2.00;;;9.40;99.90;;;;;;12565997;28;20049;-87
2023/01/12 20:09:11;;;;;;;3.70;2.63;;;9.30;99.90;;;;;;12586356;28;20126;-88
2023/01/12 20:15:14;;;;;;;3.45;2.38;;;9.30;99.90;;;;;;12575098;28;20492;-86
2023/01/12 20:21:15;;;;;;;3.53;2.35;;;9.30;99.90;;;;;;12562032;28;20044;-87
2023/01/12 20:27:17;;;;;;;5.40;3.10;;;9.30;99.90;;;;;;12580075;28;20056;-86
2023/01/12 20:33:20;;;;;;;4.47;1.92;;;9.30;99.90;;;;;;12572942;28;20045;-87
2023/01/12 20:39:22;;;;;;;4.45;2.03;;;9.30;99.90;;;;;;12571920;28;20109;-86
2023/01/12 20:45:24;;;;;;;4.03;2.47;;;9.30;99.90;;;;;;12569495;28;20123;-86
2023/01/12 20:51:27;;;;;;;3.53;2.30;;;9.40;99.90;;;;;;12567744;28;20063;-86
2023/01/12 20:57:29;;;;;;;3.25;2.00;;;9.30;99.90;;;;;;12569256;28;20064;-86
2023/01/12 21:03:31;;;;;;;3.08;2.00;;;9.40;99.90;;;;;;12569209;28;20495;-87
2023/01/12 21:09:33;;;;;;;3.95;1.80;;;9.40;99.90;;;;;;12583823;28;20045;-87
2023/01/12 21:15:35;;;;;;;2.58;1.50;;;9.40;99.90;;;;;;12570335;28;20071;-88
2023/01/12 21:21:37;;;;;;;2.63;1.40;;;9.40;99.90;;;;;;12584605;28;20415;-87
2023/01/12 21:27:39;;;;;;;3.17;1.70;;;9.40;99.90;;;;;;12580339;28;20443;-87
2023/01/12 21:33:40;;;;;;;2.65;1.67;;;9.40;99.90;;;;;;12582717;28;20057;-87
2023/01/12 21:39:42;;;;;;;3.17;1.88;;;9.40;99.90;;;;;;12579801;28;20048;-86
2023/01/12 21:45:47;;;;;;;3.50;2.08;;;9.40;99.90;;;;;;12564848;28;20040;-86
2023/01/12 21:51:49;;;;;;;3.95;2.20;;;9.40;99.90;;;;;;12553409;28;20460;-86
2023/01/12 21:57:53;;;;;;;5.28;2.00;;;9.40;99.90;;;;;;12570664;28;20048;-86
2023/01/12 22:03:56;;;;;;;3.58;2.00;;;9.50;99.90;;;;;;12584781;28;20040;-87
2023/01/12 22:10:17;;;;;;;4.60;2.47;;;9.50;99.90;;;;;;12579252;28;20049;-87
2023/01/12 22:16:19;;;;;;;4.28;2.75;;;9.50;99.90;;;;;;12567719;28;20048;-87
2023/01/12 22:22:21;;;;;;;2.83;2.10;;;9.50;99.90;;;;;;12592471;28;20575;-87
2023/01/12 22:28:23;;;;;;;2.70;2.10;;;9.50;99.90;;;;;;12586813;28;20047;-87
2023/01/12 22:34:25;;;;;;;3.55;2.40;;;9.50;99.90;;;;;;12563821;28;20052;-86
2023/01/12 22:40:26;;;;;;;3.88;1.90;;;9.50;99.90;;;;;;12570687;28;20488;-87
2023/01/12 22:46:28;;;;;;;2.72;1.90;;;9.40;99.90;;;;;;12576273;28;20067;-87
2023/01/12 22:52:30;;;;;;;4.32;2.20;;;9.40;99.90;;;;;;12567807;28;20045;-87
2023/01/12 22:58:32;;;;;;;3.97;2.70;;;9.40;99.90;;;;;;12588790;28;20076;-87
2023/01/12 23:04:34;;;;;;;5.65;2.50;;;9.40;99.90;;;;;;12574072;28;20049;-85
2023/01/12 23:10:36;;;;;;;4.90;2.95;;;9.40;99.90;;;;;;12559582;28;20036;-86
2023/01/12 23:16:37;;;;;;;5.13;3.00;;;9.40;99.90;;;;;;12583458;28;20053;-86
2023/01/12 23:22:39;;;;;;;4.78;3.05;;;9.40;99.90;;;;;;12570191;28;20094;-86
2023/01/12 23:28:47;;;;;;;6.28;3.50;;;9.40;99.90;;;;;;12590477;28;20045;-86
2023/01/12 23:34:48;;;;;;;4.47;3.50;;;9.50;99.90;;;;;;12585720;28;20057;-87
2023/01/12 23:40:50;;;;;;;5.15;3.65;;;9.50;99.90;;;;;;12570425;28;20048;-87
2023/01/12 23:46:54;;;;;;;4.63;3.50;;;9.50;99.90;;;;;;12572441;28;20072;-87
2023/01/12 23:52:56;;;;;;;4.53;2.97;;;9.40;99.90;;;;;;12567207;28;20040;-87
2023/01/12 23:58:58;;;;;;;4.75;2.80;;;9.40;99.90;;;;;;12569829;28;20124;-86
